createdAt,value
2018-09-12T00:01:01.153Z,10.20
2018-09-12T00:03:29.816Z,10.93
2018-09-12T00:05:57.977Z,11.00
2018-09-12T00:08:26.149Z,11.87
2018-09-12T00:10:54.347Z,12.00
2018-09-12T00:13:22.537Z,11.87
2018-09-12T00:15:50.716Z,11.97
2018-09-12T00:18:19.217Z,11.50
2018-09-12T00:20:47.447Z,11.13
2018-09-12T00:23:16.261Z,10.63
2018-09-12T00:25:44.459Z,11.50
2018-09-12T00:28:12.709Z,11.63
2018-09-12T00:30:40.977Z,11.67
2018-09-12T00:33:09.330Z,11.43
2018-09-12T00:35:37.699Z,11.80
2018-09-12T00:38:05.915Z,10.90
2018-09-12T00:40:34.121Z,10.10
2018-09-12T00:43:02.572Z,9.90
2018-09-12T00:45:30.809Z,10.90
2018-09-12T00:47:59.290Z,9.90
2018-09-12T00:50:27.455Z,11.20
2018-09-12T00:52:55.885Z,9.77
2018-09-12T00:55:24.176Z,10.33
2018-09-12T00:57:52.358Z,11.20
2018-09-12T01:00:20.516Z,10.00
2018-09-12T01:02:48.710Z,11.07
2018-09-12T01:05:16.954Z,9.83
2018-09-12T01:07:45.255Z,10.07
2018-09-12T01:10:13.422Z,9.87
2018-09-12T01:12:41.589Z,11.40
2018-09-12T01:15:09.937Z,10.87
2018-09-12T01:17:38.279Z,10.27
2018-09-12T01:20:06.471Z,10.53
2018-09-12T01:22:34.713Z,10.60
2018-09-12T01:25:02.992Z,10.43
2018-09-12T01:27:31.161Z,10.67
2018-09-12T01:29:59.412Z,10.33
2018-09-12T01:32:27.601Z,11.37
2018-09-12T01:34:56.047Z,12.03
2018-09-12T01:37:24.585Z,12.00
2018-09-12T01:39:52.838Z,11.43
2018-09-12T01:42:21.014Z,12.33
2018-09-12T01:44:49.344Z,11.80
2018-09-12T01:47:17.521Z,11.00
2018-09-12T01:49:46.027Z,11.43
2018-09-12T01:52:14.201Z,12.27
2018-09-12T01:54:42.620Z,12.80
2018-09-12T01:57:10.836Z,12.00
2018-09-12T01:59:38.990Z,12.13
2018-09-12T02:02:07.233Z,12.70
2018-09-12T02:04:35.800Z,11.90
2018-09-12T02:07:03.984Z,12.47
2018-09-12T02:09:32.262Z,12.00
2018-09-12T02:12:00.514Z,12.00
2018-09-12T02:14:28.695Z,12.87
2018-09-12T02:16:56.882Z,11.73
2018-09-12T02:19:25.050Z,12.10
2018-09-12T02:21:53.317Z,12.40
2018-09-12T02:24:21.554Z,14.30
2018-09-12T02:26:49.769Z,13.07
2018-09-12T02:29:17.937Z,14.20
2018-09-12T02:31:46.152Z,15.00
2018-09-12T02:34:14.709Z,15.30
2018-09-12T02:36:42.873Z,16.20
2018-09-12T02:39:11.169Z,15.33
2018-09-12T02:41:39.430Z,14.93
2018-09-12T02:44:07.595Z,14.90
2018-09-12T02:46:35.801Z,16.40
2018-09-12T02:49:04.053Z,15.87
2018-09-12T02:51:32.325Z,15.37
2018-09-12T02:54:00.852Z,15.33
2018-09-12T02:56:29.094Z,15.73
2018-09-12T02:58:57.687Z,15.40
2018-09-12T03:01:25.884Z,17.00
2018-09-12T03:04:10.852Z,16.20
2018-09-12T03:06:39.150Z,16.00
2018-09-12T03:09:08.341Z,15.70
2018-09-12T03:11:36.552Z,15.80
2018-09-12T03:14:04.773Z,16.57
2018-09-12T03:16:32.963Z,16.07
2018-09-12T03:19:01.257Z,15.13
2018-09-12T03:21:29.680Z,14.53
2018-09-12T03:23:57.902Z,14.37
2018-09-12T03:26:26.140Z,15.73
2018-09-12T03:28:54.471Z,13.00
2018-09-12T03:31:22.648Z,18.00
2018-09-12T03:33:50.880Z,16.70
2018-09-12T03:36:19.172Z,18.00
2018-09-12T03:38:47.384Z,17.17
2018-09-12T03:41:15.892Z,16.80
2018-09-12T03:43:44.076Z,15.70
2018-09-12T03:46:12.336Z,16.73
2018-09-12T03:48:40.602Z,16.77
2018-09-12T03:51:08.789Z,16.23
2018-09-12T03:53:37.188Z,16.17
2018-09-12T03:56:05.446Z,16.70
2018-09-12T03:58:34.774Z,16.87
2018-09-12T04:01:02.961Z,17.73
2018-09-12T04:03:31.129Z,17.57
2018-09-12T04:05:59.795Z,17.37
2018-09-12T04:08:28.046Z,17.27
2018-09-12T04:10:56.537Z,16.50
2018-09-12T04:13:24.817Z,20.93
2018-09-12T04:15:53.081Z,24.13
2018-09-12T04:18:21.345Z,27.50
2018-09-12T04:20:49.627Z,26.27
2018-09-12T04:23:17.799Z,39.83
2018-09-12T04:25:45.975Z,24.60
2018-09-12T04:28:14.157Z,18.00
2018-09-12T04:30:42.337Z,17.30
2018-09-12T04:33:10.512Z,18.30
2018-09-12T04:35:38.888Z,19.10
2018-09-12T04:38:07.061Z,18.70
2018-09-12T04:40:35.233Z,19.27
2018-09-12T04:43:03.538Z,16.80
2018-09-12T04:45:31.777Z,17.33
2018-09-12T04:47:59.962Z,18.43
2018-09-12T04:50:28.145Z,18.27
2018-09-12T04:52:56.410Z,19.13
2018-09-12T04:55:24.620Z,21.17
2018-09-12T04:57:52.792Z,19.30
2018-09-12T05:00:20.985Z,19.70
2018-09-12T05:02:49.198Z,18.20
2018-09-12T05:05:17.414Z,20.30
2018-09-12T05:07:45.585Z,20.33
2018-09-12T05:10:13.822Z,19.57
2018-09-12T05:12:42.009Z,20.73
2018-09-12T05:15:10.179Z,19.70
2018-09-12T05:17:38.493Z,20.23
2018-09-12T05:20:06.686Z,21.40
2018-09-12T05:22:34.895Z,20.33
2018-09-12T05:25:03.153Z,21.00
2018-09-12T05:27:31.468Z,20.40
2018-09-12T05:29:59.728Z,22.53
2018-09-12T05:32:27.901Z,20.73
2018-09-12T05:34:56.094Z,18.70
2018-09-12T05:37:24.356Z,20.13
2018-09-12T05:39:52.533Z,21.73
2018-09-12T05:42:20.817Z,20.03
2018-09-12T05:44:49.087Z,18.10
2018-09-12T05:47:17.395Z,21.97
2018-09-12T05:49:45.651Z,19.60
2018-09-12T05:52:13.819Z,19.30
2018-09-12T05:54:42.493Z,18.70
2018-09-12T05:57:10.690Z,19.67
2018-09-12T05:59:38.868Z,17.90
2018-09-12T06:02:07.338Z,17.53
2018-09-12T06:04:35.526Z,17.87
2018-09-12T06:07:03.799Z,17.13
2018-09-12T06:09:31.882Z,17.73
2018-09-12T06:12:00.074Z,16.77
2018-09-12T06:14:28.244Z,16.40
2018-09-12T06:16:56.464Z,16.25
2018-09-12T06:19:24.658Z,15.33
2018-09-12T06:21:52.883Z,15.37
2018-09-12T06:24:21.453Z,15.43
2018-09-12T06:26:49.847Z,15.10
2018-09-12T06:29:18.038Z,16.83
2018-09-12T06:31:46.211Z,15.60
2018-09-12T06:34:14.698Z,16.10
2018-09-12T06:36:42.901Z,15.67
2018-09-12T06:39:12.690Z,15.90
2018-09-12T06:41:40.886Z,14.07
2018-09-12T06:44:09.259Z,15.07
2018-09-12T06:46:37.628Z,15.63
2018-09-12T06:49:06.184Z,15.43
2018-09-12T06:51:34.440Z,16.27
2018-09-12T06:54:02.818Z,16.13
2018-09-12T06:56:31.071Z,14.90
2018-09-12T06:58:59.270Z,15.30
2018-09-12T07:01:27.447Z,13.90
2018-09-12T07:03:55.686Z,15.63
2018-09-12T07:06:24.046Z,15.50
2018-09-12T07:08:52.529Z,14.77
2018-09-12T07:11:20.817Z,16.07
2018-09-12T07:13:49.077Z,16.37
2018-09-12T07:16:17.361Z,15.70
2018-09-12T07:18:45.646Z,15.20
2018-09-12T07:21:13.817Z,15.17
2018-09-12T07:23:42.141Z,15.20
2018-09-12T07:26:10.641Z,15.43
2018-09-12T07:28:38.820Z,16.13
2018-09-12T07:31:07.189Z,14.40
2018-09-12T07:33:35.377Z,14.83
2018-09-12T07:36:03.593Z,13.97
2018-09-12T07:38:31.844Z,12.80
2018-09-12T07:41:00.133Z,13.90
2018-09-12T07:43:29.143Z,14.60
2018-09-12T07:45:57.390Z,13.30
2018-09-12T07:48:25.590Z,13.77
2018-09-12T07:50:53.776Z,13.67
2018-09-12T07:53:22.045Z,13.90
2018-09-12T07:55:50.280Z,13.80
2018-09-12T07:58:18.465Z,13.10
2018-09-12T08:00:46.673Z,12.50
2018-09-12T08:03:14.933Z,13.53
2018-09-12T08:05:43.102Z,12.63
2018-09-12T08:08:11.314Z,13.83
2018-09-12T08:10:40.089Z,12.63
2018-09-12T08:13:08.654Z,12.93
2018-09-12T08:15:36.846Z,11.90
2018-09-12T08:18:05.646Z,12.50
2018-09-12T08:20:34.056Z,11.47
2018-09-12T08:23:02.362Z,11.90
2018-09-12T08:25:30.569Z,11.40
2018-09-12T08:27:58.797Z,13.10
2018-09-12T08:30:27.332Z,12.73
2018-09-12T08:32:55.509Z,12.97
2018-09-12T08:35:24.835Z,12.73
2018-09-12T08:37:52.996Z,12.17
2018-09-12T08:40:21.225Z,13.40
2018-09-12T08:42:49.600Z,13.10
2018-09-12T08:45:17.872Z,11.30
2018-09-12T08:47:46.119Z,11.33
2018-09-12T08:50:14.257Z,9.73
2018-09-12T08:52:42.513Z,10.90
2018-09-12T08:55:10.833Z,9.63
2018-09-12T08:57:38.996Z,10.97
2018-09-12T09:00:07.418Z,10.00
2018-09-12T09:02:35.610Z,9.60
2018-09-12T09:05:03.804Z,11.00
2018-09-12T09:07:32.072Z,9.20
2018-09-12T09:10:00.400Z,9.00
2018-09-12T09:12:28.595Z,11.20
2018-09-12T09:14:56.872Z,10.70
2018-09-12T09:17:25.125Z,13.60
2018-09-12T09:19:53.314Z,15.33
2018-09-12T09:22:21.810Z,9.60
2018-09-12T09:24:50.346Z,10.60
2018-09-12T09:27:18.549Z,9.88
2018-09-12T09:29:46.735Z,12.17
2018-09-12T09:32:15.146Z,12.47
2018-09-12T09:34:43.398Z,11.63
2018-09-12T09:37:11.682Z,10.63
2018-09-12T09:39:39.866Z,11.73
2018-09-12T09:42:08.054Z,10.17
2018-09-12T09:44:36.287Z,10.07
2018-09-12T09:47:04.481Z,12.00
2018-09-12T09:49:32.667Z,9.97
2018-09-12T09:52:01.102Z,10.30
2018-09-12T09:54:29.603Z,9.00
2018-09-12T09:56:57.863Z,9.27
2018-09-12T09:59:26.126Z,9.67
2018-09-12T10:01:59.533Z,11.03
2018-09-12T10:04:33.361Z,10.80
2018-09-12T10:07:06.860Z,10.17
2018-09-12T10:09:35.037Z,9.73
2018-09-12T10:12:04.074Z,10.57
2018-09-12T10:14:32.298Z,10.30
2018-09-12T10:17:00.479Z,9.23
2018-09-12T10:19:28.749Z,10.37
2018-09-12T10:21:57.287Z,9.43
2018-09-12T10:24:25.706Z,9.90
2018-09-12T10:26:53.705Z,9.00
2018-09-12T10:29:21.945Z,10.37
2018-09-12T10:31:50.215Z,9.13
2018-09-12T10:34:18.397Z,9.33
2018-09-12T10:36:46.626Z,8.70
2018-09-12T10:39:14.841Z,8.97
2018-09-12T10:41:43.829Z,9.87
2018-09-12T10:44:12.143Z,8.20
2018-09-12T10:46:40.379Z,7.93
2018-09-12T10:49:08.711Z,7.37
2018-09-12T10:51:36.935Z,6.67
2018-09-12T10:54:05.219Z,6.30
2018-09-12T10:56:33.484Z,8.60
2018-09-12T10:59:01.753Z,6.87
2018-09-12T11:01:29.888Z,7.10
2018-09-12T11:03:58.104Z,5.47
2018-09-12T11:06:26.299Z,10.10
2018-09-12T11:08:54.566Z,6.20
2018-09-12T11:11:22.796Z,5.20
2018-09-12T11:13:50.994Z,5.43
2018-09-12T11:16:19.184Z,5.20
2018-09-12T11:18:47.466Z,6.13
2018-09-12T11:21:15.742Z,5.07
2018-09-12T11:23:43.933Z,6.47
2018-09-12T11:26:12.235Z,5.30
2018-09-12T11:28:40.738Z,5.87
2018-09-12T11:31:08.920Z,6.43
2018-09-12T11:33:37.214Z,6.40
2018-09-12T11:36:05.393Z,5.77
2018-09-12T11:38:33.582Z,5.30
2018-09-12T11:41:02.030Z,5.53
2018-09-12T11:43:30.225Z,5.08
2018-09-12T11:45:58.419Z,5.70
2018-09-12T11:48:26.828Z,5.47
2018-09-12T11:50:55.089Z,5.67
2018-09-12T11:53:23.325Z,5.80
2018-09-12T11:55:51.529Z,5.78
2018-09-12T11:58:19.719Z,5.45
2018-09-12T12:00:47.895Z,4.85
2018-09-12T12:03:16.537Z,5.47
2018-09-12T12:05:45.059Z,5.78
2018-09-12T12:08:13.280Z,5.58
2018-09-12T12:10:41.464Z,5.83
2018-09-12T12:13:09.652Z,5.20
2018-09-12T12:15:37.826Z,4.67
2018-09-12T12:18:06.102Z,5.42
2018-09-12T12:20:34.846Z,4.92
2018-09-12T12:23:03.100Z,5.22
2018-09-12T12:25:31.211Z,5.00
2018-09-12T12:27:59.396Z,4.97
2018-09-12T12:30:27.572Z,5.42
2018-09-12T12:32:55.776Z,5.40
2018-09-12T12:35:24.995Z,5.08
2018-09-12T12:37:53.636Z,5.95
2018-09-12T12:40:22.059Z,4.90
2018-09-12T12:42:50.240Z,4.92
2018-09-12T12:45:18.794Z,5.22
2018-09-12T12:47:47.049Z,5.42
2018-09-12T12:50:15.438Z,5.53
2018-09-12T12:52:43.698Z,4.45
2018-09-12T12:55:11.861Z,4.97
2018-09-12T12:57:40.317Z,5.33
2018-09-12T13:00:08.493Z,4.83
2018-09-12T13:02:36.694Z,4.60
2018-09-12T13:05:05.430Z,4.83
2018-09-12T13:07:33.661Z,5.45
2018-09-12T13:10:01.937Z,4.70
2018-09-12T13:12:30.163Z,5.05
2018-09-12T13:14:58.387Z,5.37
2018-09-12T13:17:26.657Z,4.62
2018-09-12T13:19:54.833Z,4.87
2018-09-12T13:22:23.008Z,5.42
2018-09-12T13:24:51.161Z,5.35
2018-09-12T13:27:19.494Z,4.95
2018-09-12T13:29:47.666Z,5.15
2018-09-12T13:32:15.917Z,4.92
2018-09-12T13:34:44.240Z,5.50
2018-09-12T13:37:12.460Z,5.42
2018-09-12T13:39:40.734Z,4.85
2018-09-12T13:42:09.476Z,4.33
2018-09-12T13:44:37.674Z,4.97
2018-09-12T13:47:05.878Z,4.55
2018-09-12T13:49:34.292Z,5.22
2018-09-12T13:52:02.517Z,4.58
2018-09-12T13:54:30.718Z,4.80
2018-09-12T13:56:59.015Z,4.33
2018-09-12T13:59:27.479Z,4.97
2018-09-12T14:01:55.641Z,4.62
2018-09-12T14:04:24.133Z,4.95
2018-09-12T14:06:52.378Z,4.90
2018-09-12T14:09:20.572Z,4.78
2018-09-12T14:11:48.769Z,4.25
2018-09-12T14:14:17.006Z,4.50
2018-09-12T14:16:45.182Z,4.85
2018-09-12T14:19:13.691Z,4.50
2018-09-12T14:21:41.947Z,4.50
2018-09-12T14:24:10.151Z,4.85
2018-09-12T14:26:38.338Z,4.75
2018-09-12T14:29:06.504Z,4.87
2018-09-12T14:31:34.742Z,4.55
2018-09-12T14:34:03.040Z,41.98
2018-09-12T14:36:31.296Z,5.20
2018-09-12T14:38:59.594Z,4.60
2018-09-12T14:41:27.768Z,3.92
2018-09-12T14:43:55.938Z,4.22
2018-09-12T14:46:24.202Z,3.83
2018-09-12T14:48:52.380Z,3.72
2018-09-12T14:51:20.874Z,4.12
2018-09-12T14:53:49.130Z,3.92
2018-09-12T14:56:17.329Z,3.60
2018-09-12T14:58:45.520Z,3.58
2018-09-12T15:01:13.693Z,3.50
2018-09-12T15:03:41.893Z,4.10
2018-09-12T15:06:10.054Z,3.97
2018-09-12T15:08:38.225Z,3.70
2018-09-12T15:11:06.741Z,4.27
2018-09-12T15:13:34.970Z,4.17
2018-09-12T15:16:03.207Z,4.07
2018-09-12T15:18:31.424Z,4.20
2018-09-12T15:20:59.623Z,4.10
2018-09-12T15:23:27.808Z,3.67
2018-09-12T15:25:56.006Z,3.63
2018-09-12T15:28:24.190Z,3.47
2018-09-12T15:30:52.454Z,3.87
2018-09-12T15:33:20.738Z,3.77
2018-09-12T15:35:48.922Z,4.07
2018-09-12T15:38:17.110Z,4.27
2018-09-12T15:40:47.276Z,4.50
2018-09-12T15:43:15.547Z,3.50
2018-09-12T15:45:43.861Z,3.80
2018-09-12T15:48:12.057Z,3.83
2018-09-12T15:50:40.253Z,3.97
2018-09-12T15:53:08.773Z,3.80
2018-09-12T15:55:37.073Z,5.80
2018-09-12T15:58:05.700Z,3.53
2018-09-12T16:00:33.845Z,3.60
2018-09-12T16:03:02.383Z,4.47
2018-09-12T16:05:30.567Z,3.60
2018-09-12T16:07:58.944Z,4.00
2018-09-12T16:10:27.205Z,4.10
2018-09-12T16:12:55.384Z,3.50
2018-09-12T16:15:23.679Z,4.33
2018-09-12T16:17:51.794Z,3.50
2018-09-12T16:20:20.019Z,4.03
2018-09-12T16:22:48.523Z,4.40
2018-09-12T16:25:16.723Z,4.03
2018-09-12T16:27:44.907Z,4.10
2018-09-12T16:30:13.230Z,4.83
2018-09-12T16:32:41.540Z,4.17
2018-09-12T16:35:10.575Z,4.20
2018-09-12T16:37:38.822Z,3.60
2018-09-12T16:40:07.096Z,3.93
2018-09-12T16:42:35.329Z,3.20
2018-09-12T16:45:03.739Z,4.20
2018-09-12T16:47:31.932Z,3.27
2018-09-12T16:50:00.142Z,3.87
2018-09-12T16:52:28.648Z,3.90
2018-09-12T16:54:56.918Z,3.87
2018-09-12T16:57:25.174Z,3.43
2018-09-12T16:59:53.678Z,3.50
2018-09-12T17:02:21.915Z,3.87
2018-09-12T17:04:50.078Z,3.43
2018-09-12T17:07:18.277Z,3.70
2018-09-12T17:09:46.578Z,4.30
2018-09-12T17:12:14.853Z,4.13
2018-09-12T17:14:43.117Z,15.50
2018-09-12T17:17:11.434Z,66.00
2018-09-12T17:19:39.615Z,17.73
2018-09-12T17:22:07.874Z,4.83
2018-09-12T17:24:36.097Z,5.67
2018-09-12T17:27:04.308Z,4.70
2018-09-12T17:29:32.749Z,5.20
2018-09-12T17:32:00.961Z,4.40
2018-09-12T17:34:29.135Z,3.70
2018-09-12T17:36:57.397Z,5.53
2018-09-12T17:39:26.357Z,6.77
2018-09-12T17:41:54.536Z,4.43
2018-09-12T17:44:22.781Z,7.33
2018-09-12T17:46:51.049Z,5.23
2018-09-12T17:49:19.213Z,4.70
2018-09-12T17:51:47.480Z,4.60
2018-09-12T17:54:15.872Z,4.63
2018-09-12T17:56:44.074Z,4.97
2018-09-12T17:59:12.259Z,4.67
2018-09-12T18:01:40.460Z,4.47
2018-09-12T18:04:08.959Z,4.90
2018-09-12T18:06:37.395Z,47.03
2018-09-12T18:09:07.864Z,22.77
2018-09-12T18:11:36.135Z,11.40
2018-09-12T18:14:04.286Z,6.40
2018-09-12T18:16:32.598Z,6.13
2018-09-12T18:19:00.772Z,5.20
2018-09-12T18:21:29.080Z,13.90
2018-09-12T18:23:57.320Z,11.03
2018-09-12T18:26:25.526Z,8.43
2018-09-12T18:28:54.176Z,6.37
2018-09-12T18:31:22.464Z,6.10
2018-09-12T18:33:51.092Z,5.60
2018-09-12T18:36:19.258Z,5.73
2018-09-12T18:38:47.445Z,6.50
2018-09-12T18:41:15.653Z,5.60
2018-09-12T18:43:43.869Z,5.50
2018-09-12T18:46:13.517Z,42.07
2018-09-12T18:48:42.893Z,33.63
2018-09-12T18:51:12.089Z,15.20
2018-09-12T18:53:41.915Z,8.67
2018-09-12T18:56:17.524Z,8.30
2018-09-12T18:58:47.325Z,5.93
2018-09-12T19:01:16.440Z,6.30
2018-09-12T19:03:45.977Z,6.20
2018-09-12T19:06:15.168Z,23.37
2018-09-12T19:08:44.898Z,22.93
2018-09-12T19:11:14.076Z,32.50
2018-09-12T19:13:44.068Z,16.73
2018-09-12T19:16:13.162Z,10.77
2018-09-12T19:18:42.037Z,7.50
2018-09-12T19:21:11.107Z,5.43
2018-09-12T19:23:40.393Z,7.50
2018-09-12T19:26:09.406Z,6.90
2018-09-12T19:28:38.568Z,6.07
2018-09-12T19:31:07.693Z,6.07
2018-09-12T19:33:37.268Z,12.10
2018-09-12T19:36:06.372Z,28.83
2018-09-12T19:38:35.503Z,11.47
2018-09-12T19:41:04.287Z,9.17
2018-09-12T19:43:33.159Z,7.33
2018-09-12T19:46:01.403Z,6.90
2018-09-12T19:48:30.541Z,5.93
2018-09-12T19:50:59.622Z,6.47
2018-09-12T19:53:28.694Z,6.53
2018-09-12T19:55:57.455Z,7.00
2018-09-12T19:58:26.343Z,6.90
2018-09-12T20:00:55.432Z,6.90
2018-09-12T20:03:24.560Z,7.53
2018-09-12T20:05:53.624Z,7.77
2018-09-12T20:08:23.648Z,9.27
2018-09-12T20:10:52.480Z,9.83
2018-09-12T20:13:20.804Z,9.60
2018-09-12T20:15:49.322Z,8.37
2018-09-12T20:18:17.555Z,7.93
2018-09-12T20:20:46.342Z,8.47
2018-09-12T20:23:14.614Z,7.57
2018-09-12T20:25:43.214Z,7.43
2018-09-12T20:28:11.426Z,7.03
2018-09-12T20:30:39.646Z,7.83
2018-09-12T20:33:07.990Z,8.23
2018-09-12T20:35:36.215Z,8.20
2018-09-12T20:38:05.343Z,16.07
2018-09-12T20:40:33.581Z,13.50
2018-09-12T20:43:01.805Z,8.30
2018-09-12T20:45:30.074Z,7.17
2018-09-12T20:47:58.289Z,7.70
2018-09-12T20:50:26.541Z,10.17
2018-09-12T20:52:54.993Z,16.30
2018-09-12T20:55:23.536Z,13.37
2018-09-12T20:57:51.839Z,10.80
2018-09-12T21:00:20.174Z,10.27
2018-09-12T21:02:48.529Z,8.53
2018-09-12T21:05:16.621Z,9.10
2018-09-12T21:07:44.847Z,7.85
2018-09-12T21:10:13.064Z,12.80
2018-09-12T21:12:41.650Z,12.70
2018-09-12T21:15:09.842Z,11.90
2018-09-12T21:17:38.032Z,9.40
2018-09-12T21:20:06.266Z,10.27
2018-09-12T21:22:34.542Z,9.60
2018-09-12T21:25:02.862Z,9.60
2018-09-12T21:27:31.616Z,8.80
2018-09-12T21:29:59.859Z,9.50
2018-09-12T21:32:28.200Z,9.03
2018-09-12T21:34:56.407Z,9.60
2018-09-12T21:37:24.922Z,8.43
2018-09-12T21:39:53.093Z,8.60
2018-09-12T21:42:21.357Z,9.20
2018-09-12T21:44:49.539Z,8.90
2018-09-12T21:47:17.777Z,9.03
2018-09-12T21:49:47.049Z,8.83
2018-09-12T21:52:15.254Z,9.27
2018-09-12T21:54:43.417Z,9.97
2018-09-12T21:57:11.874Z,10.23
2018-09-12T21:59:40.137Z,13.50
2018-09-12T22:02:08.316Z,15.00
2018-09-12T22:04:36.493Z,9.87
2018-09-12T22:07:05.261Z,10.53
2018-09-12T22:09:33.517Z,9.47
2018-09-12T22:12:01.778Z,9.87
2018-09-12T22:14:30.272Z,9.50
2018-09-12T22:16:58.822Z,9.13
2018-09-12T22:19:27.028Z,9.70
2018-09-12T22:21:55.664Z,11.13
2018-09-12T22:24:23.889Z,11.37
2018-09-12T22:26:52.073Z,10.23
2018-09-12T22:29:20.350Z,10.50
2018-09-12T22:31:48.532Z,10.90
2018-09-12T22:34:17.012Z,10.40
2018-09-12T22:36:45.382Z,10.43
2018-09-12T22:39:13.649Z,10.50
2018-09-12T22:41:41.889Z,10.87
2018-09-12T22:44:10.071Z,9.77
2018-09-12T22:46:38.249Z,9.33
2018-09-12T22:49:06.565Z,10.20
2018-09-12T22:51:34.765Z,10.00
2018-09-12T22:54:03.038Z,12.03
2018-09-12T22:56:31.173Z,13.67
2018-09-12T22:58:59.471Z,9.23
2018-09-12T23:01:27.722Z,10.63
2018-09-12T23:03:55.985Z,10.00
2018-09-12T23:06:24.261Z,9.10
2018-09-12T23:08:52.443Z,9.07
2018-09-12T23:11:20.624Z,10.07
2018-09-12T23:13:48.996Z,9.87
2018-09-12T23:16:17.257Z,9.67
2018-09-12T23:18:45.455Z,10.23
2018-09-12T23:21:13.641Z,10.13
2018-09-12T23:23:41.884Z,10.30
2018-09-12T23:26:10.053Z,9.60
2018-09-12T23:28:38.240Z,9.00
2018-09-12T23:31:06.440Z,10.00
2018-09-12T23:33:34.612Z,10.00
2018-09-12T23:36:02.877Z,9.93
2018-09-12T23:38:31.142Z,8.67
2018-09-12T23:40:59.310Z,8.93
2018-09-12T23:43:27.798Z,8.90
2018-09-12T23:45:56.023Z,9.43
2018-09-12T23:48:24.178Z,10.60
2018-09-12T23:50:52.383Z,9.90
2018-09-12T23:53:20.598Z,9.87
2018-09-12T23:55:48.794Z,9.95
2018-09-12T23:58:23.395Z,12.07
